createdAt,value
2019-04-14T00:00:05.687Z,20.23
2019-04-14T00:02:46.889Z,19.70
2019-04-14T00:05:18.927Z,23.00
2019-04-14T00:07:49.581Z,20.88
2019-04-14T00:10:20.430Z,16.87
2019-04-14T00:12:51.416Z,15.65
2019-04-14T00:15:30.948Z,17.82
2019-04-14T00:17:54.589Z,18.45
2019-04-14T00:20:25.073Z,19.52
2019-04-14T00:22:55.581Z,20.52
2019-04-14T00:25:26.220Z,17.60
2019-04-14T00:27:56.815Z,18.27
2019-04-14T00:30:27.352Z,21.37
2019-04-14T00:33:01.809Z,21.05
2019-04-14T00:35:54.260Z,20.95
2019-04-14T00:38:28.091Z,22.27
2019-04-14T00:41:40.297Z,19.10
2019-04-14T00:44:12.436Z,22.15
2019-04-14T00:46:56.048Z,26.48
2019-04-14T00:49:26.900Z,23.87
2019-04-14T00:51:59.225Z,22.55
2019-04-14T00:54:30.412Z,19.05
2019-04-14T00:57:00.931Z,25.65
2019-04-14T00:59:31.298Z,20.97
2019-04-14T01:02:01.636Z,21.00
2019-04-14T01:04:31.999Z,19.90
2019-04-14T01:07:02.310Z,26.80
2019-04-14T01:09:32.731Z,24.63
2019-04-14T01:12:03.887Z,24.80
2019-04-14T01:14:34.376Z,22.13
2019-04-14T01:17:04.822Z,25.08
2019-04-14T01:19:35.303Z,24.25
2019-04-14T01:22:05.673Z,22.30
2019-04-14T01:24:38.113Z,24.37
2019-04-14T01:27:08.507Z,23.18
2019-04-14T01:29:38.954Z,25.90
2019-04-14T01:32:09.236Z,26.07
2019-04-14T01:34:39.635Z,22.17
2019-04-14T01:37:09.979Z,25.00
2019-04-14T01:39:41.362Z,25.62
2019-04-14T01:42:11.796Z,29.10
2019-04-14T01:44:42.136Z,24.60
2019-04-14T01:47:12.457Z,27.95
2019-04-14T01:49:44.303Z,26.07
2019-04-14T01:52:32.310Z,27.10
2019-04-14T01:55:24.807Z,27.13
2019-04-14T01:58:12.919Z,28.52
2019-04-14T02:01:14.924Z,28.52
2019-04-14T02:03:45.583Z,25.68
2019-04-14T02:06:15.972Z,32.83
2019-04-14T02:08:46.298Z,26.02
2019-04-14T02:11:16.665Z,27.05
2019-04-14T02:13:46.956Z,25.52
2019-04-14T02:16:27.120Z,28.83
2019-04-14T02:18:52.250Z,32.55
2019-04-14T02:21:21.626Z,26.95
2019-04-14T02:23:51.960Z,27.15
2019-04-14T02:26:22.303Z,26.25
2019-04-14T02:28:52.839Z,28.27
2019-04-14T02:31:43.685Z,26.15
2019-04-14T02:34:25.872Z,23.27
2019-04-14T02:36:58.779Z,25.62
2019-04-14T02:39:29.396Z,22.82
2019-04-14T02:42:07.112Z,20.35
2019-04-14T02:44:38.245Z,22.17
2019-04-14T02:47:03.608Z,21.20
2019-04-14T02:49:36.370Z,20.25
2019-04-14T02:52:09.648Z,20.23
2019-04-14T02:54:48.040Z,18.02
2019-04-14T02:57:22.982Z,20.25
2019-04-14T02:59:43.163Z,14.07
2019-04-14T03:02:23.137Z,10.88
2019-04-14T03:04:44.889Z,12.05
2019-04-14T03:07:21.488Z,10.70
2019-04-14T03:09:46.627Z,13.05
2019-04-14T03:12:28.015Z,12.10
2019-04-14T03:14:48.022Z,11.00
2019-04-14T03:17:36.817Z,11.48
2019-04-14T03:20:35.608Z,13.80
2019-04-14T03:23:18.918Z,9.95
2019-04-14T03:26:05.815Z,10.78
2019-04-14T03:28:51.746Z,9.98
2019-04-14T03:34:12.818Z,12.28
2019-04-14T03:43:48.362Z,11.65
2019-04-14T03:46:36.473Z,10.58
2019-04-14T03:48:57.899Z,10.53
2019-04-14T03:51:43.201Z,12.43
2019-04-14T03:53:59.115Z,11.85
2019-04-14T03:56:44.893Z,13.38
2019-04-14T03:59:15.709Z,9.08
2019-04-14T04:01:46.132Z,10.20
2019-04-14T04:04:16.465Z,9.38
2019-04-14T04:06:46.765Z,11.38
2019-04-14T04:09:17.157Z,9.40
2019-04-14T04:11:47.633Z,9.58
2019-04-14T04:14:18.167Z,11.57
2019-04-14T04:17:10.241Z,10.32
2019-04-14T04:19:46.898Z,6.55
2019-04-14T04:22:48.668Z,10.00
2019-04-14T04:25:39.966Z,10.23
2019-04-14T04:28:32.132Z,8.73
2019-04-14T04:31:22.042Z,8.25
2019-04-14T04:34:01.079Z,6.55
2019-04-14T04:36:57.441Z,8.88
2019-04-14T04:39:34.878Z,11.12
2019-04-14T04:42:04.825Z,7.37
2019-04-14T04:44:35.640Z,9.58
2019-04-14T04:47:07.745Z,8.48
2019-04-14T04:49:38.354Z,8.28
2019-04-14T04:52:11.417Z,8.43
2019-04-14T04:54:40.739Z,7.95
2019-04-14T04:57:11.298Z,6.28
2019-04-14T04:59:41.623Z,6.75
2019-04-14T05:02:11.951Z,8.50
2019-04-14T05:04:43.839Z,6.90
2019-04-14T05:07:14.469Z,9.33
2019-04-14T05:10:04.712Z,8.80
2019-04-14T05:12:39.748Z,8.50
2019-04-14T05:15:29.147Z,8.83
2019-04-14T05:18:00.438Z,7.53
2019-04-14T05:20:31.374Z,8.70
2019-04-14T05:23:01.805Z,8.43
2019-04-14T05:25:32.094Z,8.18
2019-04-14T05:28:02.698Z,7.15
2019-04-14T05:30:33.035Z,7.25
2019-04-14T05:33:03.372Z,6.53
2019-04-14T05:35:33.660Z,7.53
2019-04-14T05:38:04.110Z,6.00
2019-04-14T05:40:34.447Z,8.20
2019-04-14T05:43:04.864Z,7.78
2019-04-14T05:45:35.267Z,9.38
2019-04-14T05:48:05.700Z,8.58
2019-04-14T05:50:35.999Z,5.75
2019-04-14T05:53:06.519Z,7.03
2019-04-14T05:55:37.387Z,5.33
2019-04-14T05:58:07.976Z,5.83
2019-04-14T06:00:42.051Z,7.47
2019-04-14T06:03:12.496Z,5.90
2019-04-14T06:05:42.900Z,5.30
2019-04-14T06:08:13.140Z,5.85
2019-04-14T06:10:43.497Z,5.70
2019-04-14T06:13:13.883Z,5.03
2019-04-14T06:15:44.223Z,6.15
2019-04-14T06:18:14.539Z,7.47
2019-04-14T06:20:44.915Z,6.70
2019-04-14T06:23:15.284Z,6.12
2019-04-14T06:25:45.632Z,8.00
2019-04-14T06:28:15.949Z,7.00
2019-04-14T06:31:03.883Z,7.72
2019-04-14T06:33:44.147Z,7.35
2019-04-14T06:36:29.804Z,7.50
2019-04-14T06:39:06.331Z,15.03
2019-04-14T06:41:36.772Z,16.45
2019-04-14T06:44:07.085Z,8.48
2019-04-14T06:46:37.414Z,8.55
2019-04-14T06:49:07.748Z,9.63
2019-04-14T06:51:38.153Z,10.68
2019-04-14T06:54:08.457Z,10.13
2019-04-14T06:56:38.883Z,9.73
2019-04-14T06:59:09.184Z,8.78
2019-04-14T07:01:39.549Z,9.10
2019-04-14T07:04:09.855Z,9.70
2019-04-14T07:06:40.170Z,7.10
2019-04-14T07:09:10.485Z,7.72
2019-04-14T07:11:41.222Z,8.43
2019-04-14T07:14:11.574Z,9.08
2019-04-14T07:16:41.979Z,14.98
2019-04-14T07:19:12.353Z,11.80
2019-04-14T07:21:43.770Z,9.68
2019-04-14T07:24:14.156Z,10.25
2019-04-14T07:26:44.673Z,9.75
2019-04-14T07:29:15.011Z,9.70
2019-04-14T07:32:13.507Z,9.93
2019-04-14T07:35:04.893Z,11.03
2019-04-14T07:37:48.126Z,10.93
2019-04-14T07:40:24.836Z,13.00
2019-04-14T07:43:14.237Z,14.80
2019-04-14T07:46:18.796Z,10.90
2019-04-14T07:49:24.111Z,10.03
2019-04-14T07:52:19.623Z,10.23
2019-04-14T07:55:13.414Z,11.85
2019-04-14T07:58:01.616Z,13.43
2019-04-14T08:00:39.077Z,12.68
2019-04-14T08:03:17.996Z,13.32
2019-04-14T08:05:48.340Z,9.80
2019-04-14T08:08:18.840Z,12.82
2019-04-14T08:10:49.168Z,11.10
2019-04-14T08:13:20.736Z,11.70
2019-04-14T08:15:51.153Z,12.90
2019-04-14T08:18:21.580Z,12.53
2019-04-14T08:20:52.938Z,13.10
2019-04-14T08:23:23.955Z,13.90
2019-04-14T08:25:54.431Z,16.42
2019-04-14T08:28:25.917Z,15.32
2019-04-14T08:30:56.345Z,13.68
2019-04-14T08:33:26.831Z,15.10
2019-04-14T08:35:57.241Z,13.83
2019-04-14T08:38:27.702Z,14.20
2019-04-14T08:40:58.071Z,16.67
2019-04-14T08:43:53.883Z,14.58
2019-04-14T08:46:43.224Z,18.05
2019-04-14T08:49:35.615Z,15.38
2019-04-14T08:52:14.257Z,17.15
2019-04-14T08:54:50.485Z,19.92
2019-04-14T08:57:28.938Z,18.57
2019-04-14T09:00:18.267Z,17.87
2019-04-14T09:03:13.695Z,18.07
2019-04-14T09:06:06.912Z,19.92
2019-04-14T09:08:42.577Z,21.33
2019-04-14T09:11:13.042Z,23.42
2019-04-14T09:13:43.396Z,22.48
2019-04-14T09:16:14.810Z,20.88
2019-04-14T09:18:45.250Z,22.15
2019-04-14T09:21:15.742Z,21.73
2019-04-14T09:23:46.113Z,20.75
2019-04-14T09:26:16.504Z,22.52
2019-04-14T09:28:46.920Z,20.75
2019-04-14T09:31:17.457Z,20.17
2019-04-14T09:33:47.770Z,22.87
2019-04-14T09:36:19.282Z,23.27
2019-04-14T09:38:49.712Z,21.55
2019-04-14T09:41:20.065Z,26.68
2019-04-14T09:43:50.476Z,24.80
2019-04-14T09:46:20.850Z,23.62
2019-04-14T09:48:51.308Z,26.80
2019-04-14T09:51:22.178Z,24.63
2019-04-14T09:53:52.705Z,23.12
2019-04-14T09:56:23.197Z,22.65
2019-04-14T09:58:53.707Z,25.72
2019-04-14T10:01:24.538Z,29.00
2019-04-14T10:03:55.132Z,34.33
2019-04-14T10:06:25.547Z,37.30
2019-04-14T10:08:56.166Z,41.20
2019-04-14T10:11:26.714Z,33.28
2019-04-14T10:13:57.084Z,29.27
2019-04-14T10:16:27.463Z,31.35
2019-04-14T10:18:57.905Z,30.02
2019-04-14T10:21:28.253Z,31.20
2019-04-14T10:23:58.716Z,29.82
2019-04-14T10:26:29.067Z,32.03
2019-04-14T10:28:59.434Z,36.15
2019-04-14T10:31:29.818Z,33.28
2019-04-14T10:34:00.178Z,34.63
2019-04-14T10:36:30.595Z,37.75
2019-04-14T10:39:01.143Z,33.83
2019-04-14T10:41:33.244Z,34.92
2019-04-14T10:44:03.614Z,34.65
2019-04-14T10:46:33.981Z,35.23
2019-04-14T10:49:04.374Z,30.82
2019-04-14T10:51:34.737Z,37.40
2019-04-14T10:54:05.082Z,49.70
2019-04-14T10:56:36.557Z,48.90
2019-04-14T10:59:07.007Z,40.20
2019-04-14T11:01:37.433Z,40.08
2019-04-14T11:04:08.106Z,41.00
2019-04-14T11:06:42.006Z,42.73
2019-04-14T11:09:15.317Z,38.30
2019-04-14T11:11:46.134Z,42.62
2019-04-14T11:14:16.496Z,37.80
2019-04-14T11:16:46.897Z,36.38
2019-04-14T11:19:17.336Z,41.18
2019-04-14T11:21:48.674Z,41.23
2019-04-14T11:24:19.401Z,40.98
2019-04-14T11:26:49.784Z,45.48
2019-04-14T11:29:20.193Z,50.88
2019-04-14T11:32:12.503Z,45.33
2019-04-14T11:35:00.455Z,46.58
2019-04-14T11:38:05.169Z,38.05
2019-04-14T11:40:40.788Z,37.25
2019-04-14T11:43:11.219Z,47.27
2019-04-14T11:45:41.592Z,46.02
2019-04-14T11:48:11.952Z,43.40
2019-04-14T11:50:42.347Z,46.60
2019-04-14T11:53:12.768Z,45.00
2019-04-14T11:55:43.182Z,41.05
2019-04-14T11:58:13.594Z,45.08
2019-04-14T12:00:59.779Z,38.92
2019-04-14T12:03:46.941Z,38.25
2019-04-14T12:06:29.347Z,43.08
2019-04-14T12:09:05.940Z,46.33
2019-04-14T12:11:37.976Z,40.78
2019-04-14T12:14:08.372Z,45.38
2019-04-14T12:16:38.745Z,46.55
2019-04-14T12:19:09.070Z,42.05
2019-04-14T12:21:39.477Z,44.08
2019-04-14T12:24:09.845Z,41.55
2019-04-14T12:26:40.258Z,40.20
2019-04-14T12:29:11.814Z,38.50
2019-04-14T12:31:42.316Z,38.38
2019-04-14T12:34:12.752Z,40.70
2019-04-14T12:36:43.341Z,42.33
2019-04-14T12:39:21.610Z,43.35
2019-04-14T12:41:57.800Z,37.80
2019-04-14T12:44:57.160Z,34.65
2019-04-14T12:47:40.335Z,36.95
2019-04-14T12:50:33.699Z,38.48
2019-04-14T12:53:04.125Z,36.58
2019-04-14T12:55:34.791Z,34.92
2019-04-14T12:58:06.606Z,34.00
2019-04-14T13:00:52.463Z,36.10
2019-04-14T13:03:24.639Z,34.90
2019-04-14T13:05:55.162Z,31.40
2019-04-14T13:08:25.694Z,32.53
2019-04-14T13:10:56.093Z,29.23
2019-04-14T13:13:26.593Z,30.57
2019-04-14T13:15:57.162Z,29.05
2019-04-14T13:18:27.670Z,27.00
2019-04-14T13:20:58.101Z,28.80
2019-04-14T13:23:28.657Z,26.80
2019-04-14T13:25:59.174Z,30.27
2019-04-14T13:28:29.643Z,28.90
2019-04-14T13:31:00.202Z,35.13
2019-04-14T13:33:30.640Z,31.20
2019-04-14T13:36:01.156Z,37.65
2019-04-14T13:38:31.600Z,36.10
2019-04-14T13:41:02.030Z,35.20
2019-04-14T13:43:32.558Z,31.25
2019-04-14T13:46:02.992Z,34.15
2019-04-14T13:48:33.568Z,30.12
2019-04-14T13:51:03.991Z,29.85
2019-04-14T13:53:34.486Z,30.00
2019-04-14T13:56:05.092Z,28.20
2019-04-14T13:58:38.117Z,26.57
2019-04-14T14:01:07.747Z,27.98
2019-04-14T14:03:38.249Z,28.05
2019-04-14T14:06:08.704Z,23.92
2019-04-14T14:08:39.180Z,25.32
2019-04-14T14:11:32.416Z,27.00
2019-04-14T14:14:27.726Z,26.45
2019-04-14T14:17:14.458Z,23.80
2019-04-14T14:19:55.641Z,24.67
2019-04-14T14:22:45.168Z,25.60
2019-04-14T14:25:19.945Z,27.37
2019-04-14T14:27:50.605Z,24.32
2019-04-14T14:30:21.661Z,22.55
2019-04-14T14:32:53.362Z,27.42
2019-04-14T14:35:23.925Z,26.10
2019-04-14T14:37:54.363Z,22.67
2019-04-14T14:40:24.946Z,21.65
2019-04-14T14:42:55.445Z,24.15
2019-04-14T14:45:43.707Z,22.70
2019-04-14T14:48:31.303Z,23.65
2019-04-14T14:51:12.909Z,21.90
2019-04-14T14:53:43.371Z,24.30
2019-04-14T14:56:13.864Z,23.57
2019-04-14T14:58:45.463Z,24.07
2019-04-14T15:01:17.113Z,24.57
2019-04-14T15:03:47.669Z,19.40
2019-04-14T15:06:18.234Z,19.55
2019-04-14T15:08:48.838Z,21.35
2019-04-14T15:11:19.285Z,22.35
2019-04-14T15:13:49.708Z,23.83
2019-04-14T15:16:20.081Z,23.00
2019-04-14T15:18:50.521Z,22.52
2019-04-14T15:21:21.021Z,22.30
2019-04-14T15:23:51.405Z,19.90
2019-04-14T15:26:21.911Z,20.35
2019-04-14T15:28:52.325Z,20.37
2019-04-14T15:31:22.878Z,20.82
2019-04-14T15:33:53.429Z,22.07
2019-04-14T15:36:24.291Z,20.15
2019-04-14T15:38:54.768Z,21.33
2019-04-14T15:41:25.250Z,22.20
2019-04-14T15:43:55.755Z,25.00
2019-04-14T15:46:26.332Z,27.82
2019-04-14T15:48:56.953Z,28.57
2019-04-14T15:51:27.512Z,21.48
2019-04-14T15:53:58.238Z,22.80
2019-04-14T15:56:46.254Z,22.15
2019-04-14T15:59:38.701Z,19.73
2019-04-14T16:02:17.527Z,21.05
2019-04-14T16:05:00.097Z,22.32
2019-04-14T16:08:07.618Z,17.90
2019-04-14T16:10:51.483Z,18.75
2019-04-14T16:13:30.628Z,20.05
2019-04-14T16:16:29.204Z,23.92
2019-04-14T16:19:01.584Z,21.07
2019-04-14T16:21:32.105Z,18.82
2019-04-14T16:24:02.558Z,17.05
2019-04-14T16:26:58.214Z,16.62
2019-04-14T16:29:33.958Z,16.32
2019-04-14T16:32:11.498Z,18.50
2019-04-14T16:34:45.320Z,18.02
2019-04-14T16:37:16.682Z,21.00
2019-04-14T16:39:47.811Z,18.82
2019-04-14T16:42:18.172Z,15.80
2019-04-14T16:44:48.690Z,17.50
2019-04-14T16:47:20.478Z,19.52
2019-04-14T16:49:50.921Z,20.48
2019-04-14T16:52:52.576Z,17.62
2019-04-14T16:55:29.620Z,16.02
2019-04-14T16:58:16.524Z,16.55
2019-04-14T17:00:51.687Z,17.92
2019-04-14T17:03:22.877Z,15.95
2019-04-14T17:05:53.381Z,18.73
2019-04-14T17:08:23.885Z,18.05
2019-04-14T17:10:54.467Z,17.32
2019-04-14T17:13:26.532Z,17.20
2019-04-14T17:16:26.446Z,15.32
2019-04-14T17:19:05.364Z,16.87
2019-04-14T17:21:54.746Z,16.23
2019-04-14T17:24:42.886Z,14.07
2019-04-14T17:27:32.830Z,16.95
2019-04-14T17:30:20.931Z,14.53
2019-04-14T17:33:19.334Z,15.03
2019-04-14T17:36:05.219Z,15.38
2019-04-14T17:38:40.612Z,13.48
2019-04-14T17:41:36.239Z,13.90
2019-04-14T17:44:26.275Z,14.95
2019-04-14T17:47:14.508Z,13.85
2019-04-14T17:50:02.676Z,16.12
2019-04-14T17:52:37.811Z,13.22
2019-04-14T17:55:13.667Z,12.43
2019-04-14T17:58:03.211Z,12.82
2019-04-14T18:00:44.283Z,17.87
2019-04-14T18:03:51.928Z,14.45
2019-04-14T18:06:33.686Z,12.55
2019-04-14T18:09:23.858Z,14.33
2019-04-14T18:12:06.390Z,14.13
2019-04-14T18:15:11.716Z,12.68
2019-04-14T18:18:10.411Z,11.93
2019-04-14T18:20:46.607Z,12.50
2019-04-14T18:23:17.383Z,12.68
2019-04-14T18:25:48.262Z,27.85
2019-04-14T18:28:26.841Z,21.80
2019-04-14T18:31:06.148Z,15.10
2019-04-14T18:33:42.989Z,15.23
2019-04-14T18:36:23.492Z,16.23
2019-04-14T18:39:12.925Z,16.05
2019-04-14T18:41:50.490Z,12.82
2019-04-14T18:44:38.468Z,17.82
2019-04-14T18:47:26.453Z,14.93
2019-04-14T18:50:04.626Z,22.70
2019-04-14T18:52:43.969Z,22.22
2019-04-14T18:55:39.343Z,19.40
2019-04-14T18:58:27.570Z,18.90
2019-04-14T19:01:02.380Z,19.40
2019-04-14T19:03:32.769Z,18.77
2019-04-14T19:06:03.142Z,16.00
2019-04-14T19:08:33.538Z,14.38
2019-04-14T19:11:14.862Z,17.12
2019-04-14T19:13:45.462Z,16.07
2019-04-14T19:16:19.582Z,14.98
2019-04-14T19:18:52.774Z,18.02
2019-04-14T19:21:26.047Z,20.77
2019-04-14T19:23:56.579Z,24.92
2019-04-14T19:26:27.062Z,29.27
2019-04-14T19:28:57.438Z,21.85
2019-04-14T19:31:27.869Z,24.32
2019-04-14T19:33:58.324Z,28.80
2019-04-14T19:36:28.797Z,25.00
2019-04-14T19:38:59.354Z,23.60
2019-04-14T19:41:29.765Z,19.67
2019-04-14T19:44:00.596Z,16.95
2019-04-14T19:46:31.059Z,17.17
2019-04-14T19:49:01.832Z,15.45
2019-04-14T19:51:33.207Z,14.05
2019-04-14T19:54:03.775Z,17.00
2019-04-14T19:56:34.311Z,15.38
2019-04-14T19:59:04.760Z,14.13
2019-04-14T20:01:35.156Z,13.68
2019-04-14T20:04:05.598Z,16.20
2019-04-14T20:06:36.012Z,12.75
2019-04-14T20:09:07.427Z,15.15
2019-04-14T20:11:38.280Z,21.52
2019-04-14T20:14:08.653Z,18.48
2019-04-14T20:16:56.791Z,15.45
2019-04-14T20:19:40.590Z,13.00
2019-04-14T20:22:30.171Z,13.10
2019-04-14T20:25:17.367Z,15.30
2019-04-14T20:28:06.168Z,15.08
2019-04-14T20:30:43.509Z,13.35
2019-04-14T20:33:13.946Z,13.60
2019-04-14T20:35:44.268Z,12.13
2019-04-14T20:38:14.670Z,16.32
2019-04-14T20:40:45.052Z,12.40
2019-04-14T20:43:16.422Z,11.22
2019-04-14T20:45:46.821Z,11.95
2019-04-14T20:48:17.225Z,13.28
2019-04-14T20:50:47.507Z,11.08
2019-04-14T20:53:17.996Z,14.15
2019-04-14T20:55:50.652Z,15.30
2019-04-14T20:58:21.275Z,16.65
2019-04-14T21:00:51.668Z,11.85
2019-04-14T21:03:39.925Z,11.83
2019-04-14T21:06:29.283Z,13.98
2019-04-14T21:09:14.542Z,15.32
2019-04-14T21:12:06.632Z,15.13
2019-04-14T21:14:52.643Z,13.93
2019-04-14T21:17:28.973Z,13.95
2019-04-14T21:20:08.105Z,15.90
2019-04-14T21:22:43.123Z,15.75
2019-04-14T21:25:35.183Z,15.30
2019-04-14T21:28:20.644Z,16.82
2019-04-14T21:30:55.677Z,16.77
2019-04-14T21:33:57.280Z,14.38
2019-04-14T21:36:49.352Z,13.18
2019-04-14T21:39:40.640Z,13.65
2019-04-14T21:42:10.655Z,12.80
2019-04-14T21:44:40.991Z,14.65
2019-04-14T21:47:11.334Z,13.03
2019-04-14T21:49:41.657Z,15.20
2019-04-14T21:52:37.848Z,15.65
2019-04-14T21:55:09.175Z,14.75
2019-04-14T21:57:57.035Z,12.82
2019-04-14T22:01:23.437Z,14.23
2019-04-14T22:04:11.820Z,16.05
2019-04-14T22:06:42.895Z,17.17
2019-04-14T22:09:19.670Z,13.03
2019-04-14T22:11:50.012Z,14.70
2019-04-14T22:14:20.420Z,15.10
2019-04-14T22:16:50.716Z,15.58
2019-04-14T22:19:21.082Z,12.58
2019-04-14T22:21:51.404Z,13.05
2019-04-14T22:24:21.782Z,12.65
2019-04-14T22:26:52.111Z,13.08
2019-04-14T22:29:22.450Z,15.78
2019-04-14T22:31:52.776Z,15.83
2019-04-14T22:34:23.079Z,13.78
2019-04-14T22:36:53.420Z,14.03
2019-04-14T22:39:23.804Z,15.65
2019-04-14T22:41:54.133Z,15.32
2019-04-14T22:44:24.431Z,12.63
2019-04-14T22:46:54.879Z,13.85
2019-04-14T22:49:25.182Z,12.53
2019-04-14T22:51:55.522Z,14.43
2019-04-14T22:54:25.891Z,16.35
2019-04-14T22:56:56.154Z,12.50
2019-04-14T22:59:26.447Z,12.20
2019-04-14T23:02:04.507Z,12.15
2019-04-14T23:05:02.834Z,13.13
2019-04-14T23:07:50.917Z,14.93
2019-04-14T23:10:46.201Z,13.50
2019-04-14T23:13:22.662Z,12.05
2019-04-14T23:16:04.213Z,12.73
2019-04-14T23:18:38.966Z,10.78
2019-04-14T23:21:26.815Z,13.28
2019-04-14T23:24:13.301Z,13.55
2019-04-14T23:26:52.290Z,16.05
2019-04-14T23:29:15.607Z,15.63
2019-04-14T23:31:45.938Z,17.37
2019-04-14T23:34:16.392Z,13.55
2019-04-14T23:36:46.801Z,13.45
2019-04-14T23:39:17.195Z,12.65
2019-04-14T23:41:47.485Z,15.45
2019-04-14T23:44:17.845Z,13.13
2019-04-14T23:46:48.150Z,13.58
2019-04-14T23:49:18.595Z,13.90
2019-04-14T23:51:48.947Z,15.63
2019-04-14T23:54:19.265Z,11.25
2019-04-14T23:56:49.574Z,19.32
2019-04-14T23:59:19.969Z,12.60
